Time;durP1;ratioP1;P1;durP2;ratioP2;P2;SDS_P1;SDS_P2;PMS_P1;PMS_P2;Temp;Humidity;BMP_temperature;BMP_pressure;BME280_temperature;BME280_humidity;BME280_pressure;Samples;Min_cycle;Max_cycle;Signal;HPM_P1;HPM_P2
2021/08/21 00:02:22;;;;;;;8.80;6.00;;;;;;;;;;5032552;28;20427;-71
2021/08/21 00:04:49;;;;;;;11.43;6.17;;;;;;;;;;5032637;28;20465;-71
2021/08/21 00:07:15;;;;;;;8.60;6.30;;;;;;;;;;5031758;28;20776;-71
2021/08/21 00:09:41;;;;;;;9.87;6.20;;;;;;;;;;5032617;28;20450;-71
2021/08/21 00:12:07;;;;;;;7.87;6.20;;;;;;;;;;5030876;28;20553;-72
2021/08/21 00:14:34;;;;;;;10.63;6.27;;;;;;;;;;5013876;28;20424;-71
2021/08/21 00:17:01;;;;;;;8.63;6.10;;;;;;;;;;5016106;28;20458;-72
2021/08/21 00:19:27;;;;;;;12.83;6.50;;;;;;;;;;5031983;28;20802;-72
2021/08/21 00:21:53;;;;;;;10.20;6.50;;;;;;;;;;5032284;28;20815;-72
2021/08/21 00:24:19;;;;;;;8.33;6.20;;;;;;;;;;5015416;28;20443;-72
2021/08/21 00:26:45;;;;;;;9.77;5.60;;;;;;;;;;5014054;28;20423;-72
2021/08/21 00:29:12;;;;;;;11.10;5.30;;;;;;;;;;5024993;28;20470;-72
2021/08/21 00:31:38;;;;;;;9.70;6.07;;;;;;;;;;5011937;28;20475;-72
2021/08/21 00:34:04;;;;;;;8.57;6.20;;;;;;;;;;5031486;28;20418;-73
2021/08/21 00:36:30;;;;;;;7.03;6.23;;;;;;;;;;5033356;28;20785;-73
2021/08/21 00:38:56;;;;;;;8.87;5.60;;;;;;;;;;5030676;28;20430;-73
2021/08/21 00:41:22;;;;;;;8.90;5.50;;;;;;;;;;5032863;28;20453;-72
2021/08/21 00:43:50;;;;;;;8.77;6.27;;;;;;;;;;5030531;28;20430;-72
2021/08/21 00:46:16;;;;;;;7.73;5.87;;;;;;;;;;5032889;28;20414;-72
2021/08/21 00:48:42;;;;;;;20.47;6.50;;;;;;;;;;5030737;28;20430;-72
2021/08/21 00:51:08;;;;;;;8.20;5.73;;;;;;;;;;5031054;28;21005;-71
2021/08/21 00:53:34;;;;;;;7.80;5.20;;;;;;;;;;5031678;28;20423;-71
2021/08/21 00:56:03;;;;;;;7.20;5.80;;;;;;;;;;5032818;28;20494;-71
2021/08/21 00:58:30;;;;;;;6.97;4.93;;;;;;;;;;5031309;28;20431;-73
2021/08/21 01:00:57;;;;;;;7.87;5.97;;;;;;;;;;5035863;28;20402;-72
2021/08/21 01:03:23;;;;;;;7.00;5.63;;;;;;;;;;5035622;28;20454;-72
2021/08/21 01:05:49;;;;;;;10.00;6.40;;;;;;;;;;5035691;28;20492;-72
2021/08/21 01:08:16;;;;;;;8.97;6.10;;;;;;;;;;5034607;28;20533;-72
2021/08/21 01:10:42;;;;;;;6.80;5.10;;;;;;;;;;5035120;28;20458;-72
2021/08/21 01:13:08;;;;;;;6.60;5.60;;;;;;;;;;5035750;28;20971;-72
2021/08/21 01:15:34;;;;;;;7.53;6.10;;;;;;;;;;5035509;28;20469;-72
2021/08/21 01:18:03;;;;;;;8.30;5.50;;;;;;;;;;5034137;28;20811;-72
2021/08/21 01:20:30;;;;;;;8.97;5.27;;;;;;;;;;5036062;28;20410;-72
2021/08/21 01:22:56;;;;;;;9.70;5.20;;;;;;;;;;5035304;28;20465;-71
2021/08/21 01:25:23;;;;;;;6.87;5.47;;;;;;;;;;5028369;28;20449;-71
2021/08/21 01:27:49;;;;;;;8.20;5.33;;;;;;;;;;5032445;28;20457;-71
2021/08/21 01:30:16;;;;;;;6.30;5.10;;;;;;;;;;5036104;28;20492;-72
2021/08/21 01:32:42;;;;;;;10.13;5.60;;;;;;;;;;5035243;28;20437;-72
2021/08/21 01:35:09;;;;;;;8.50;5.30;;;;;;;;;;5035053;28;20497;-72
2021/08/21 01:37:35;;;;;;;7.40;5.43;;;;;;;;;;5028322;28;20928;-75
2021/08/21 01:40:01;;;;;;;12.73;5.40;;;;;;;;;;5035535;28;20790;-71
2021/08/21 01:42:27;;;;;;;6.73;5.10;;;;;;;;;;5035723;28;20407;-72
2021/08/21 01:44:53;;;;;;;6.83;5.13;;;;;;;;;;5034408;28;20426;-71
2021/08/21 01:47:19;;;;;;;6.87;5.27;;;;;;;;;;5028581;28;20455;-72
2021/08/21 01:49:56;;;;;;;7.20;4.37;;;;;;;;;;5027946;28;20419;-72
2021/08/21 01:52:22;;;;;;;6.80;4.63;;;;;;;;;;5035398;28;20465;-71
2021/08/21 01:54:48;;;;;;;9.77;4.87;;;;;;;;;;5034221;28;20435;-72
2021/08/21 01:57:14;;;;;;;9.53;4.90;;;;;;;;;;5027060;28;20467;-71
2021/08/21 01:59:42;;;;;;;6.47;5.30;;;;;;;;;;5026361;28;20430;-71
2021/08/21 02:02:09;;;;;;;6.70;5.00;;;;;;;;;;5034528;28;20789;-72
2021/08/21 02:04:35;;;;;;;5.67;4.50;;;;;;;;;;5028010;28;20426;-72
2021/08/21 02:07:01;;;;;;;7.07;5.10;;;;;;;;;;5026807;28;20447;-72
2021/08/21 02:09:28;;;;;;;7.10;4.60;;;;;;;;;;5024329;28;20442;-72
2021/08/21 02:11:54;;;;;;;5.17;4.20;;;;;;;;;;5033404;28;21063;-71
2021/08/21 02:14:21;;;;;;;5.60;4.80;;;;;;;;;;5032994;28;20438;-71
2021/08/21 02:16:51;;;;;;;16.00;5.40;;;;;;;;;;5025852;28;20451;-72
2021/08/21 02:19:18;;;;;;;6.67;4.67;;;;;;;;;;5021973;28;20780;-72
2021/08/21 02:21:44;;;;;;;7.33;4.90;;;;;;;;;;5035191;28;20477;-72
2021/08/21 02:24:10;;;;;;;8.20;4.53;;;;;;;;;;5033406;28;20441;-72
2021/08/21 02:26:42;;;;;;;6.90;4.73;;;;;;;;;;5032347;28;20997;-73
2021/08/21 02:29:08;;;;;;;6.00;4.70;;;;;;;;;;5032940;28;20505;-72
2021/08/21 02:31:35;;;;;;;8.07;4.73;;;;;;;;;;5034690;28;20545;-73
2021/08/21 02:34:01;;;;;;;6.70;5.07;;;;;;;;;;5033969;28;20414;-72
2021/08/21 02:36:27;;;;;;;7.93;4.97;;;;;;;;;;5033821;28;20434;-73
2021/08/21 02:38:53;;;;;;;9.60;5.10;;;;;;;;;;5034719;28;20417;-72
2021/08/21 02:41:19;;;;;;;5.03;4.53;;;;;;;;;;5033995;28;20941;-72
2021/08/21 02:43:45;;;;;;;7.33;5.47;;;;;;;;;;5015433;28;20806;-72
2021/08/21 02:46:11;;;;;;;6.13;4.87;;;;;;;;;;5022016;28;20458;-71
2021/08/21 02:48:37;;;;;;;7.20;5.07;;;;;;;;;;5014874;28;21007;-71
2021/08/21 02:51:03;;;;;;;6.93;4.77;;;;;;;;;;5029986;28;20549;-71
2021/08/21 02:53:29;;;;;;;6.40;4.80;;;;;;;;;;5015946;28;20416;-72
2021/08/21 02:55:55;;;;;;;7.40;5.17;;;;;;;;;;5019581;28;20430;-72
2021/08/21 02:58:21;;;;;;;8.57;4.90;;;;;;;;;;5028980;28;20541;-73
2021/08/21 03:00:47;;;;;;;7.33;4.50;;;;;;;;;;5032056;28;20969;-72
2021/08/21 03:03:13;;;;;;;6.67;5.20;;;;;;;;;;5033168;28;20422;-73
2021/08/21 03:05:40;;;;;;;6.93;4.80;;;;;;;;;;5032804;28;20431;-72
2021/08/21 03:08:06;;;;;;;6.43;4.50;;;;;;;;;;5033146;28;20435;-72
2021/08/21 03:10:32;;;;;;;7.60;4.70;;;;;;;;;;5033389;28;20458;-72
2021/08/21 03:12:58;;;;;;;9.80;5.33;;;;;;;;;;5033465;28;20422;-72
2021/08/21 03:15:26;;;;;;;5.37;4.40;;;;;;;;;;5033037;28;20493;-72
2021/08/21 03:17:52;;;;;;;7.57;5.37;;;;;;;;;;5033683;28;20438;-72
2021/08/21 03:20:18;;;;;;;6.87;4.33;;;;;;;;;;5032218;28;20509;-72
2021/08/21 03:22:44;;;;;;;8.20;4.67;;;;;;;;;;5032603;28;20415;-72
2021/08/21 03:25:11;;;;;;;6.73;4.57;;;;;;;;;;5030618;28;20452;-71
2021/08/21 03:27:37;;;;;;;6.60;4.57;;;;;;;;;;5025068;28;20480;-72
2021/08/21 03:30:04;;;;;;;9.17;4.90;;;;;;;;;;5031917;28;20808;-72
2021/08/21 03:32:30;;;;;;;6.60;4.40;;;;;;;;;;5032500;28;20603;-72
2021/08/21 03:34:56;;;;;;;6.57;4.93;;;;;;;;;;5024009;28;20510;-71
2021/08/21 03:37:22;;;;;;;8.20;5.17;;;;;;;;;;5033425;28;20835;-72
2021/08/21 03:39:48;;;;;;;8.17;4.73;;;;;;;;;;5033593;28;20403;-72
2021/08/21 03:42:15;;;;;;;9.83;4.60;;;;;;;;;;5033091;28;20514;-72
2021/08/21 03:44:41;;;;;;;7.23;5.40;;;;;;;;;;5024077;28;20756;-73
2021/08/21 03:47:07;;;;;;;6.77;4.37;;;;;;;;;;5030672;28;20480;-73
2021/08/21 03:49:33;;;;;;;7.03;5.50;;;;;;;;;;5032595;28;20414;-72
2021/08/21 03:51:59;;;;;;;6.80;5.03;;;;;;;;;;5030979;28;20872;-72
2021/08/21 03:54:25;;;;;;;8.17;5.70;;;;;;;;;;5031915;28;20411;-73
2021/08/21 03:56:52;;;;;;;8.60;5.00;;;;;;;;;;5032428;28;20456;-73
2021/08/21 03:59:18;;;;;;;9.03;4.90;;;;;;;;;;5033504;28;20410;-73
2021/08/21 04:01:44;;;;;;;7.37;5.10;;;;;;;;;;5032202;28;20434;-72
2021/08/21 04:04:10;;;;;;;5.87;4.70;;;;;;;;;;5032630;28;20414;-73
2021/08/21 04:06:39;;;;;;;6.40;4.80;;;;;;;;;;5032299;28;20569;-72
2021/08/21 04:09:05;;;;;;;9.10;5.90;;;;;;;;;;5033563;28;20417;-73
2021/08/21 04:11:32;;;;;;;8.67;6.17;;;;;;;;;;5031630;28;20898;-73
2021/08/21 04:13:58;;;;;;;7.17;5.30;;;;;;;;;;5031720;28;20501;-73
2021/08/21 04:16:23;;;;;;;14.73;5.37;;;;;;;;;;5032211;28;20492;-73
2021/08/21 04:18:50;;;;;;;7.23;4.60;;;;;;;;;;5033096;28;20419;-72
2021/08/21 04:21:16;;;;;;;7.63;5.57;;;;;;;;;;5031739;28;20430;-73
2021/08/21 04:23:42;;;;;;;7.63;5.87;;;;;;;;;;5031929;28;20509;-73
2021/08/21 04:26:08;;;;;;;9.83;5.20;;;;;;;;;;5029606;28;20445;-72
2021/08/21 04:28:34;;;;;;;6.17;4.90;;;;;;;;;;5033051;28;20491;-73
2021/08/21 04:31:00;;;;;;;10.10;6.10;;;;;;;;;;5031622;28;20454;-72
2021/08/21 04:33:26;;;;;;;7.40;5.20;;;;;;;;;;5032806;28;20488;-73
2021/08/21 04:35:52;;;;;;;8.37;5.63;;;;;;;;;;5035444;28;20426;-72
2021/08/21 04:38:19;;;;;;;7.23;5.20;;;;;;;;;;5036863;28;20476;-72
2021/08/21 04:40:47;;;;;;;6.57;4.63;;;;;;;;;;5035378;28;20440;-72
2021/08/21 04:43:13;;;;;;;6.10;4.70;;;;;;;;;;5036516;28;20411;-73
2021/08/21 04:45:39;;;;;;;8.40;5.70;;;;;;;;;;5036295;28;20526;-72
2021/08/21 04:48:05;;;;;;;6.10;5.50;;;;;;;;;;5036747;28;20454;-73
2021/08/21 04:50:31;;;;;;;7.43;5.90;;;;;;;;;;5033772;28;20456;-72
2021/08/21 04:52:57;;;;;;;7.93;5.17;;;;;;;;;;5036174;28;20445;-72
2021/08/21 04:55:23;;;;;;;6.57;5.40;;;;;;;;;;5035051;28;20454;-72
2021/08/21 04:57:50;;;;;;;6.40;5.00;;;;;;;;;;5036526;28;20422;-73
2021/08/21 05:00:16;;;;;;;7.90;5.97;;;;;;;;;;5018769;28;20408;-73
2021/08/21 05:02:42;;;;;;;6.53;4.83;;;;;;;;;;5034869;28;20445;-72
2021/08/21 05:05:08;;;;;;;6.07;4.80;;;;;;;;;;5036466;28;20394;-73
2021/08/21 05:07:34;;;;;;;7.07;5.43;;;;;;;;;;5035593;28;20572;-72
2021/08/21 05:10:00;;;;;;;7.33;4.90;;;;;;;;;;5035648;28;20452;-72
2021/08/21 05:12:26;;;;;;;8.70;5.33;;;;;;;;;;5034728;28;20859;-72
2021/08/21 05:14:52;;;;;;;7.23;5.10;;;;;;;;;;5036198;28;20911;-73
2021/08/21 05:17:18;;;;;;;8.87;5.20;;;;;;;;;;5035175;28;20985;-73
2021/08/21 05:19:50;;;;;;;7.20;4.83;;;;;;;;;;5018262;28;20415;-72
2021/08/21 05:24:49;;;;;;;7.60;5.50;;;;;;;;;;5016680;28;20411;-73
2021/08/21 05:27:15;;;;;;;5.97;4.93;;;;;;;;;;5030266;28;20814;-71
2021/08/21 05:29:41;;;;;;;8.90;6.50;;;;;;;;;;5032094;28;20509;-73
2021/08/21 05:32:07;;;;;;;7.70;6.23;;;;;;;;;;5035393;28;20545;-73
2021/08/21 05:34:33;;;;;;;5.93;4.77;;;;;;;;;;5034423;28;20458;-72
2021/08/21 05:36:59;;;;;;;10.57;5.53;;;;;;;;;;5036583;28;20442;-71
2021/08/21 05:39:26;;;;;;;6.17;5.20;;;;;;;;;;5018560;28;20434;-72
2021/08/21 05:41:52;;;;;;;8.57;4.67;;;;;;;;;;5035433;28;20415;-73
2021/08/21 05:44:18;;;;;;;5.23;4.63;;;;;;;;;;5034865;28;20464;-72
2021/08/21 05:46:44;;;;;;;9.23;7.10;;;;;;;;;;5034695;28;20458;-71
2021/08/21 05:49:10;;;;;;;10.23;6.70;;;;;;;;;;5034381;28;20434;-72
2021/08/21 05:51:36;;;;;;;7.80;5.63;;;;;;;;;;5034441;28;20486;-72
2021/08/21 05:54:02;;;;;;;6.47;4.70;;;;;;;;;;5034597;28;20407;-73
2021/08/21 05:56:28;;;;;;;7.10;4.80;;;;;;;;;;5034660;28;20581;-73
2021/08/21 05:58:54;;;;;;;7.10;6.00;;;;;;;;;;5033955;28;20430;-70
2021/08/21 06:01:20;;;;;;;6.70;5.30;;;;;;;;;;5034104;28;20442;-72
2021/08/21 06:03:46;;;;;;;6.67;5.33;;;;;;;;;;5034531;28;20457;-72
2021/08/21 06:06:13;;;;;;;8.47;5.43;;;;;;;;;;5034394;28;20806;-73
2021/08/21 06:08:40;;;;;;;7.47;5.90;;;;;;;;;;5015888;28;20419;-72
2021/08/21 06:11:06;;;;;;;7.57;5.63;;;;;;;;;;5029635;28;20485;-72
2021/08/21 06:13:32;;;;;;;7.43;5.50;;;;;;;;;;5035463;28;20406;-72
2021/08/21 06:15:58;;;;;;;7.73;5.70;;;;;;;;;;5034578;28;21042;-73
2021/08/21 06:18:24;;;;;;;6.93;5.10;;;;;;;;;;5034277;28;20537;-72
2021/08/21 06:20:50;;;;;;;8.70;5.90;;;;;;;;;;5033638;28;20488;-72
2021/08/21 06:23:16;;;;;;;7.60;5.73;;;;;;;;;;5034962;28;20881;-72
2021/08/21 06:25:42;;;;;;;7.80;5.17;;;;;;;;;;5034406;28;20430;-73
2021/08/21 06:28:08;;;;;;;7.50;5.50;;;;;;;;;;5034535;28;20935;-72
2021/08/21 06:30:34;;;;;;;5.70;5.10;;;;;;;;;;5033821;28;20454;-72
2021/08/21 06:33:01;;;;;;;8.47;5.07;;;;;;;;;;5034779;28;20430;-72
2021/08/21 06:35:27;;;;;;;8.50;4.80;;;;;;;;;;5033335;28;20418;-72
2021/08/21 06:37:53;;;;;;;6.23;4.90;;;;;;;;;;5015331;28;20435;-72
2021/08/21 06:40:19;;;;;;;7.27;4.90;;;;;;;;;;5022424;28;20427;-72
2021/08/21 06:42:45;;;;;;;6.10;5.03;;;;;;;;;;5034467;28;20891;-72
2021/08/21 06:45:11;;;;;;;7.00;4.80;;;;;;;;;;5026706;28;20513;-72
2021/08/21 06:47:37;;;;;;;6.73;4.67;;;;;;;;;;5033743;28;20446;-71
2021/08/21 06:50:03;;;;;;;5.70;4.87;;;;;;;;;;5024901;28;20430;-70
2021/08/21 06:52:29;;;;;;;6.93;5.30;;;;;;;;;;5014985;28;20451;-72
2021/08/21 06:54:55;;;;;;;6.10;4.37;;;;;;;;;;5023250;28;20423;-72
2021/08/21 06:57:21;;;;;;;7.10;5.00;;;;;;;;;;5034289;28;20423;-72
2021/08/21 06:59:48;;;;;;;6.60;4.77;;;;;;;;;;5034364;28;20763;-72
2021/08/21 07:02:14;;;;;;;6.13;4.87;;;;;;;;;;5034375;28;20764;-72
2021/08/21 07:04:42;;;;;;;7.97;4.83;;;;;;;;;;5033997;28;20422;-73
2021/08/21 07:07:09;;;;;;;11.20;4.80;;;;;;;;;;5034155;28;20426;-69
2021/08/21 07:09:36;;;;;;;7.97;6.80;;;;;;;;;;5029333;28;20939;-68
2021/08/21 07:12:02;;;;;;;9.03;5.03;;;;;;;;;;5022136;28;20454;-67
2021/08/21 07:14:28;;;;;;;7.30;4.77;;;;;;;;;;5033475;28;20946;-68
2021/08/21 07:16:55;;;;;;;4.87;3.77;;;;;;;;;;5028274;28;20504;-67
2021/08/21 07:19:21;;;;;;;5.77;4.70;;;;;;;;;;5033469;28;20475;-68
2021/08/21 07:21:52;;;;;;;8.27;4.43;;;;;;;;;;5029746;28;20423;-68
2021/08/21 07:24:18;;;;;;;5.73;5.10;;;;;;;;;;5020294;28;20434;-75
2021/08/21 07:26:44;;;;;;;5.13;3.97;;;;;;;;;;5029741;28;20533;-76
2021/08/21 07:29:10;;;;;;;5.77;4.33;;;;;;;;;;5033563;28;20449;-74
2021/08/21 07:31:36;;;;;;;6.30;5.23;;;;;;;;;;5033025;28;20552;-73
2021/08/21 07:34:02;;;;;;;7.83;4.47;;;;;;;;;;5032740;28;20923;-73
2021/08/21 07:36:28;;;;;;;6.63;4.67;;;;;;;;;;5032764;28;20449;-73
2021/08/21 07:38:54;;;;;;;6.47;3.90;;;;;;;;;;5033553;28;20395;-72
2021/08/21 07:41:20;;;;;;;8.70;5.50;;;;;;;;;;5032933;28;20903;-73
2021/08/21 07:43:47;;;;;;;4.53;4.07;;;;;;;;;;5031458;28;20800;-73
2021/08/21 07:46:13;;;;;;;6.00;4.37;;;;;;;;;;5032506;28;20825;-73
2021/08/21 07:48:39;;;;;;;4.90;3.83;;;;;;;;;;5033746;28;20397;-73
2021/08/21 07:51:05;;;;;;;5.53;4.00;;;;;;;;;;5032611;28;20545;-73
2021/08/21 07:53:31;;;;;;;5.97;4.40;;;;;;;;;;5032408;28;20433;-73
2021/08/21 07:55:57;;;;;;;6.67;4.77;;;;;;;;;;5032352;28;20781;-72
2021/08/21 07:58:23;;;;;;;4.77;4.00;;;;;;;;;;5033655;28;20422;-73
2021/08/21 08:00:49;;;;;;;7.10;5.57;;;;;;;;;;5033269;28;20437;-72
2021/08/21 08:03:15;;;;;;;6.90;5.10;;;;;;;;;;5033004;28;20407;-74
2021/08/21 08:05:42;;;;;;;4.83;4.10;;;;;;;;;;5033017;28;20433;-73
2021/08/21 08:08:08;;;;;;;7.03;4.00;;;;;;;;;;5033587;28;20430;-74
2021/08/21 08:10:34;;;;;;;6.10;4.40;;;;;;;;;;5035061;28;20434;-74
2021/08/21 08:13:00;;;;;;;8.53;4.40;;;;;;;;;;5038037;28;20422;-74
2021/08/21 08:15:26;;;;;;;6.30;5.00;;;;;;;;;;5038972;28;20783;-74
2021/08/21 08:17:52;;;;;;;6.53;5.63;;;;;;;;;;5039527;28;20438;-74
2021/08/21 08:20:18;;;;;;;4.93;3.70;;;;;;;;;;5038240;28;20556;-74
2021/08/21 08:22:44;;;;;;;5.03;4.50;;;;;;;;;;5039275;28;20418;-73
2021/08/21 08:25:10;;;;;;;5.23;3.93;;;;;;;;;;5039326;28;20515;-74
2021/08/21 08:27:37;;;;;;;5.77;4.17;;;;;;;;;;5039874;28;20427;-73
2021/08/21 08:30:04;;;;;;;5.37;4.87;;;;;;;;;;5038244;28;20464;-74
2021/08/21 08:32:30;;;;;;;7.33;4.30;;;;;;;;;;5039490;28;20540;-74
2021/08/21 08:34:56;;;;;;;7.03;4.53;;;;;;;;;;5039344;28;20436;-75
2021/08/21 08:37:22;;;;;;;6.10;4.33;;;;;;;;;;5038712;28;20445;-74
2021/08/21 08:39:48;;;;;;;6.80;4.40;;;;;;;;;;5038995;28;20460;-74
2021/08/21 08:42:15;;;;;;;6.73;4.50;;;;;;;;;;5022841;28;20441;-74
2021/08/21 08:44:46;;;;;;;6.03;4.37;;;;;;;;;;5019807;28;20418;-73
2021/08/21 08:47:13;;;;;;;9.23;5.13;;;;;;;;;;5037263;28;20442;-73
2021/08/21 08:49:39;;;;;;;7.60;4.50;;;;;;;;;;5037305;28;20426;-73
2021/08/21 08:52:08;;;;;;;6.67;4.60;;;;;;;;;;5038606;28;20457;-73
2021/08/21 08:54:34;;;;;;;4.60;3.57;;;;;;;;;;5039682;28;20413;-73
2021/08/21 08:57:00;;;;;;;5.53;4.30;;;;;;;;;;5038757;28;20441;-72
2021/08/21 08:59:26;;;;;;;5.80;3.90;;;;;;;;;;5038817;28;20410;-73
2021/08/21 09:01:52;;;;;;;5.20;4.20;;;;;;;;;;5036993;28;20513;-72
2021/08/21 09:04:20;;;;;;;6.13;3.70;;;;;;;;;;5039538;28;20438;-72
2021/08/21 09:06:46;;;;;;;4.80;3.70;;;;;;;;;;5038385;28;20519;-73
2021/08/21 09:09:14;;;;;;;6.87;4.43;;;;;;;;;;5038614;28;20417;-73
2021/08/21 09:11:41;;;;;;;5.10;4.50;;;;;;;;;;5038003;28;20954;-72
2021/08/21 09:14:20;;;;;;;5.13;4.10;;;;;;;;;;5039127;28;20410;-73
2021/08/21 09:16:46;;;;;;;6.37;4.70;;;;;;;;;;5037466;28;20488;-73
2021/08/21 09:19:12;;;;;;;6.40;4.13;;;;;;;;;;5038818;28;20834;-72
2021/08/21 09:21:38;;;;;;;4.87;4.00;;;;;;;;;;5035423;28;20513;-72
2021/08/21 09:24:23;;;;;;;7.40;4.10;;;;;;;;;;5034389;28;20426;-73
2021/08/21 09:26:49;;;;;;;5.40;3.97;;;;;;;;;;5034460;28;20446;-73
2021/08/21 09:29:24;;;;;;;4.40;3.33;;;;;;;;;;5016947;28;20482;-72
2021/08/21 09:31:50;;;;;;;4.80;3.80;;;;;;;;;;5028815;28;20486;-73
2021/08/21 09:34:19;;;;;;;4.10;3.40;;;;;;;;;;5036004;28;20406;-73
2021/08/21 09:36:45;;;;;;;5.30;3.70;;;;;;;;;;5034209;28;20446;-73
2021/08/21 09:39:12;;;;;;;4.50;3.70;;;;;;;;;;5035044;28;20484;-72
2021/08/21 09:41:57;;;;;;;4.70;3.83;;;;;;;;;;5034205;28;20505;-73
2021/08/21 09:44:29;;;;;;;6.27;4.20;;;;;;;;;;5034541;28;20422;-73
2021/08/21 09:47:13;;;;;;;6.00;4.00;;;;;;;;;;5029656;28;20443;-73
2021/08/21 09:49:40;;;;;;;5.87;3.50;;;;;;;;;;5016530;28;20467;-73
2021/08/21 09:52:11;;;;;;;4.60;3.70;;;;;;;;;;5029640;28;20458;-72
2021/08/21 09:54:38;;;;;;;7.17;3.60;;;;;;;;;;5035441;28;20411;-72
2021/08/21 09:57:04;;;;;;;6.53;3.63;;;;;;;;;;5033047;28;20441;-72
2021/08/21 09:59:43;;;;;;;5.40;3.70;;;;;;;;;;5033724;28;20517;-73
2021/08/21 10:02:15;;;;;;;4.80;3.60;;;;;;;;;;5034361;28;20433;-73
2021/08/21 10:04:42;;;;;;;4.30;3.57;;;;;;;;;;5035525;28;20500;-73
2021/08/21 10:07:13;;;;;;;7.83;4.00;;;;;;;;;;5033821;28;20556;-73
2021/08/21 10:09:40;;;;;;;6.80;3.87;;;;;;;;;;5033902;28;20414;-74
2021/08/21 10:12:08;;;;;;;5.30;4.13;;;;;;;;;;5034632;28;20516;-73
2021/08/21 10:14:34;;;;;;;5.10;3.93;;;;;;;;;;5035223;28;20460;-73
2021/08/21 10:17:01;;;;;;;5.50;3.97;;;;;;;;;;5033975;28;20489;-73
2021/08/21 10:19:27;;;;;;;5.53;4.13;;;;;;;;;;5034622;28;20841;-73
2021/08/21 10:21:55;;;;;;;15.43;4.07;;;;;;;;;;5034356;28;20426;-73
2021/08/21 10:24:30;;;;;;;6.63;4.33;;;;;;;;;;5034950;28;20896;-73
2021/08/21 10:27:10;;;;;;;5.20;3.90;;;;;;;;;;5033379;28;20965;-73
2021/08/21 10:29:36;;;;;;;5.10;4.30;;;;;;;;;;5033334;28;20433;-72
2021/08/21 10:32:03;;;;;;;6.30;3.67;;;;;;;;;;5033183;28;20462;-73
2021/08/21 10:34:49;;;;;;;5.83;4.10;;;;;;;;;;5034645;28;20888;-71
2021/08/21 10:37:30;;;;;;;8.60;4.33;;;;;;;;;;5032890;28;20529;-72
2021/08/21 10:39:56;;;;;;;5.70;4.03;;;;;;;;;;5015120;28;20395;-73
2021/08/21 10:42:23;;;;;;;4.87;3.90;;;;;;;;;;5027903;28;20927;-73
2021/08/21 10:44:50;;;;;;;5.10;3.80;;;;;;;;;;5034453;28;20407;-73
2021/08/21 10:47:31;;;;;;;5.37;4.30;;;;;;;;;;5032471;28;20511;-72
2021/08/21 10:49:58;;;;;;;4.70;3.63;;;;;;;;;;5034398;28;20972;-72
2021/08/21 10:52:43;;;;;;;8.50;4.20;;;;;;;;;;5033550;28;20541;-72
2021/08/21 10:55:12;;;;;;;4.67;3.80;;;;;;;;;;5030348;28;20494;-73
2021/08/21 10:57:54;;;;;;;4.30;3.60;;;;;;;;;;5029135;28;20445;-74
2021/08/21 11:00:40;;;;;;;4.23;3.40;;;;;;;;;;5034684;28;20398;-73
2021/08/21 11:03:10;;;;;;;6.40;3.80;;;;;;;;;;5017932;28;20438;-73
2021/08/21 11:05:53;;;;;;;5.10;3.60;;;;;;;;;;5033418;28;20425;-73
2021/08/21 11:08:20;;;;;;;6.03;3.50;;;;;;;;;;5015056;28;20450;-73
2021/08/21 11:10:46;;;;;;;5.90;4.53;;;;;;;;;;5014291;28;20537;-74
2021/08/21 11:13:32;;;;;;;5.00;4.00;;;;;;;;;;5033583;28;20442;-73
2021/08/21 11:16:00;;;;;;;3.43;2.90;;;;;;;;;;5032316;28;20464;-73
2021/08/21 11:18:26;;;;;;;6.50;3.90;;;;;;;;;;5033438;28;20488;-73
2021/08/21 11:20:53;;;;;;;4.73;3.80;;;;;;;;;;5031780;28;20407;-73
2021/08/21 11:23:19;;;;;;;4.33;3.23;;;;;;;;;;5033003;28;20518;-73
2021/08/21 11:25:45;;;;;;;4.43;3.30;;;;;;;;;;5031042;28;20832;-73
2021/08/21 11:28:21;;;;;;;5.60;3.57;;;;;;;;;;5032785;28;20446;-73
2021/08/21 11:31:06;;;;;;;3.93;3.47;;;;;;;;;;5033469;28;20879;-73
2021/08/21 11:33:33;;;;;;;5.10;3.73;;;;;;;;;;5013875;28;20924;-73
2021/08/21 11:35:59;;;;;;;4.50;3.20;;;;;;;;;;5015313;28;20837;-74
2021/08/21 11:38:26;;;;;;;4.53;3.47;;;;;;;;;;5032829;28;20445;-73
2021/08/21 11:40:53;;;;;;;4.47;3.20;;;;;;;;;;5032585;28;20434;-74
2021/08/21 11:43:23;;;;;;;5.23;4.00;;;;;;;;;;5032811;28;20461;-74
2021/08/21 11:45:49;;;;;;;5.20;3.80;;;;;;;;;;5013349;28;20406;-73
2021/08/21 11:48:16;;;;;;;5.10;3.63;;;;;;;;;;5032359;28;20458;-73
2021/08/21 11:50:44;;;;;;;6.77;4.13;;;;;;;;;;5026285;28;20951;-73
2021/08/21 11:53:13;;;;;;;4.67;3.37;;;;;;;;;;5030713;28;20430;-73
2021/08/21 11:55:39;;;;;;;5.90;4.20;;;;;;;;;;5033985;28;20414;-73
2021/08/21 11:58:06;;;;;;;4.90;4.13;;;;;;;;;;5032519;28;20532;-73
2021/08/21 12:00:34;;;;;;;6.03;4.80;;;;;;;;;;5032912;28;20764;-74
2021/08/21 12:03:05;;;;;;;5.80;4.53;;;;;;;;;;5032132;28;20430;-73
2021/08/21 12:05:41;;;;;;;5.57;4.27;;;;;;;;;;5033584;28;20445;-73
2021/08/21 12:08:15;;;;;;;5.33;4.13;;;;;;;;;;5032003;28;20446;-73
2021/08/21 12:10:49;;;;;;;7.50;4.00;;;;;;;;;;5030766;28;20485;-73
2021/08/21 12:13:18;;;;;;;5.23;3.93;;;;;;;;;;5032084;28;20935;-73
2021/08/21 12:15:45;;;;;;;7.27;4.80;;;;;;;;;;5033218;28;20430;-73
2021/08/21 12:18:11;;;;;;;4.97;3.37;;;;;;;;;;5032442;28;20462;-73
2021/08/21 12:20:38;;;;;;;8.63;4.53;;;;;;;;;;5032748;28;20414;-73
2021/08/21 12:23:05;;;;;;;4.60;4.03;;;;;;;;;;5031864;28;20462;-73
2021/08/21 12:25:47;;;;;;;5.60;4.10;;;;;;;;;;5033484;28;20398;-73
2021/08/21 12:28:14;;;;;;;6.27;3.30;;;;;;;;;;5029189;28;20512;-73
2021/08/21 12:30:40;;;;;;;5.97;4.50;;;;;;;;;;5032861;28;20412;-73
2021/08/21 12:33:10;;;;;;;4.30;3.60;;;;;;;;;;5032177;28;20826;-73
2021/08/21 12:35:36;;;;;;;4.90;4.07;;;;;;;;;;5032537;28;20394;-73
2021/08/21 12:38:03;;;;;;;4.80;3.47;;;;;;;;;;5028324;28;20446;-73
2021/08/21 12:40:29;;;;;;;4.60;3.90;;;;;;;;;;5032605;28;20437;-73
2021/08/21 12:43:07;;;;;;;5.10;3.87;;;;;;;;;;5031259;28;20426;-73
2021/08/21 12:45:42;;;;;;;6.83;4.10;;;;;;;;;;5031737;28;20488;-73
2021/08/21 12:48:08;;;;;;;4.63;3.60;;;;;;;;;;5032308;28;20796;-73
2021/08/21 12:50:41;;;;;;;6.07;4.23;;;;;;;;;;5031418;28;20814;-73
2021/08/21 12:53:07;;;;;;;4.23;3.50;;;;;;;;;;5032028;28;20441;-73
2021/08/21 12:55:33;;;;;;;4.33;3.50;;;;;;;;;;5033507;28;20425;-73
2021/08/21 12:58:06;;;;;;;5.10;3.40;;;;;;;;;;5035754;28;20445;-73
2021/08/21 13:00:33;;;;;;;5.57;4.17;;;;;;;;;;5035831;28;20406;-73
2021/08/21 13:03:11;;;;;;;6.63;3.90;;;;;;;;;;5034971;28;20426;-73
2021/08/21 13:05:37;;;;;;;7.80;3.77;;;;;;;;;;5036609;28;20383;-73
2021/08/21 13:08:08;;;;;;;7.23;3.87;;;;;;;;;;5035030;28;20442;-73
2021/08/21 13:10:37;;;;;;;5.10;3.40;;;;;;;;;;5016772;28;20471;-73
2021/08/21 13:13:03;;;;;;;7.40;4.37;;;;;;;;;;5029785;28;20488;-73
2021/08/21 13:15:29;;;;;;;4.97;3.57;;;;;;;;;;5035783;28;20417;-73
2021/08/21 13:17:56;;;;;;;5.17;3.93;;;;;;;;;;5035478;28;20800;-73
2021/08/21 13:20:23;;;;;;;6.23;4.10;;;;;;;;;;5035411;28;20512;-73
2021/08/21 13:22:50;;;;;;;5.87;3.80;;;;;;;;;;5031025;28;20430;-73
2021/08/21 13:25:16;;;;;;;4.50;3.40;;;;;;;;;;5016593;28;20407;-73
2021/08/21 13:27:43;;;;;;;4.53;3.80;;;;;;;;;;5021578;28;20461;-73
2021/08/21 13:30:09;;;;;;;4.27;3.10;;;;;;;;;;5034543;28;20497;-73
2021/08/21 13:32:35;;;;;;;4.50;3.40;;;;;;;;;;5033738;28;20453;-73
2021/08/21 13:35:02;;;;;;;4.90;4.00;;;;;;;;;;5034635;28;20795;-73
2021/08/21 13:37:28;;;;;;;5.40;3.77;;;;;;;;;;5035175;28;20453;-73
2021/08/21 13:39:54;;;;;;;4.67;3.70;;;;;;;;;;5035099;28;20414;-73
2021/08/21 13:42:21;;;;;;;6.50;3.60;;;;;;;;;;5033157;28;20418;-73
2021/08/21 13:44:47;;;;;;;6.33;4.27;;;;;;;;;;5035657;28;20497;-72
2021/08/21 13:47:13;;;;;;;4.93;3.60;;;;;;;;;;5034629;28;20427;-73
2021/08/21 13:49:39;;;;;;;4.67;3.60;;;;;;;;;;5035034;28;20402;-72
2021/08/21 13:52:06;;;;;;;4.50;3.30;;;;;;;;;;5034456;28;20457;-73
2021/08/21 13:54:32;;;;;;;6.00;3.83;;;;;;;;;;5034332;28;20430;-72
2021/08/21 13:56:58;;;;;;;5.13;3.67;;;;;;;;;;5035405;28;20461;-72
2021/08/21 13:59:24;;;;;;;7.60;4.13;;;;;;;;;;5027142;28;20419;-72
2021/08/21 14:01:51;;;;;;;5.50;3.57;;;;;;;;;;5016012;28;20422;-72
2021/08/21 14:04:17;;;;;;;6.50;4.10;;;;;;;;;;5032475;28;20422;-72
2021/08/21 14:06:43;;;;;;;4.60;4.13;;;;;;;;;;5034528;28;20418;-72
2021/08/21 14:09:09;;;;;;;5.10;4.13;;;;;;;;;;5033768;28;20429;-72
2021/08/21 14:11:36;;;;;;;5.07;3.47;;;;;;;;;;5034770;28;20838;-73
2021/08/21 14:14:03;;;;;;;5.73;3.93;;;;;;;;;;5031622;28;20480;-70
2021/08/21 14:16:29;;;;;;;5.80;3.97;;;;;;;;;;5023460;28;20569;-72
2021/08/21 14:18:55;;;;;;;7.37;4.70;;;;;;;;;;5031797;28;20430;-73
2021/08/21 14:21:21;;;;;;;8.57;3.73;;;;;;;;;;5032820;28;20426;-72
2021/08/21 14:23:47;;;;;;;5.03;4.07;;;;;;;;;;5032198;28;20430;-73
2021/08/21 14:26:13;;;;;;;3.47;3.00;;;;;;;;;;5034428;28;20427;-70
2021/08/21 14:28:39;;;;;;;5.60;3.97;;;;;;;;;;5028482;28;20425;-74
2021/08/21 14:31:06;;;;;;;8.57;4.20;;;;;;;;;;5032330;28;20461;-69
2021/08/21 14:33:32;;;;;;;8.00;4.13;;;;;;;;;;5032968;28;20433;-69
2021/08/21 14:35:58;;;;;;;5.37;3.57;;;;;;;;;;5030003;28;20415;-71
2021/08/21 14:38:24;;;;;;;11.00;5.33;;;;;;;;;;5017911;28;20451;-76
2021/08/21 14:40:50;;;;;;;4.27;3.47;;;;;;;;;;5031083;28;20434;-76
2021/08/21 14:43:16;;;;;;;5.20;3.43;;;;;;;;;;5034034;28;20423;-70
2021/08/21 14:45:42;;;;;;;6.03;4.53;;;;;;;;;;5034873;28;20413;-70
2021/08/21 14:48:08;;;;;;;5.50;3.97;;;;;;;;;;5023678;28;20584;-70